Time;durP1;ratioP1;P1;durP2;ratioP2;P2;SDS_P1;SDS_P2;PMS_P1;PMS_P2;Temp;Humidity;BMP_temperature;BMP_pressure;BME280_temperature;BME280_humidity;BME280_pressure;Samples;Min_cycle;Max_cycle;Signal;HPM_P1;HPM_P2
2021/12/05 00:23:01;;;;;;;;;;;3.20;99.90;;;;;;8342132;28;19913;-64
2021/12/05 00:27:07;;;;;;;;;;;3.30;99.90;;;;;;8340072;28;19990;-64
2021/12/05 00:31:33;;;;;;;;;;;3.30;99.90;;;;;;8324553;28;20433;-64
2021/12/05 01:00:50;;;;;;;;;;;3.20;99.90;;;;;;8349645;28;19917;-64
2021/12/05 01:13:43;;;;;;;;;;;3.20;99.90;;;;;;8163267;29;19921;-64
2021/12/05 01:22:05;;;;;;;;;;;3.10;99.90;;;;;;8333404;28;19909;-64
2021/12/05 01:26:13;;;;;;;;;;;3.00;99.90;;;;;;8356340;28;19949;-64
2021/12/05 01:30:35;;;;;;;;;;;2.90;99.90;;;;;;8331952;28;19913;-64
2021/12/05 01:34:59;;;;;;;;;;;2.90;99.90;;;;;;8338338;28;19967;-64
2021/12/05 02:00:41;;;;;;;;;;;2.60;99.90;;;;;;8347630;28;20344;-64
2021/12/05 02:29:34;;;;;;;;;;;2.40;99.90;;;;;;8328671;28;20284;-64
2021/12/05 02:31:06;;;;;;;;;;;2.30;99.90;;;;;;8326505;28;19924;-64
2021/12/05 02:43:15;;;;;;;;;;;2.30;99.90;;;;;;8357272;28;19909;-64
2021/12/05 02:47:17;;;;;;;;;;;2.30;99.90;;;;;;8329718;28;19917;-64
2021/12/05 02:51:24;;;;;;;;;;;2.30;99.90;;;;;;8329639;28;20059;-64
2021/12/05 02:55:29;;;;;;;;;;;2.30;99.90;;;;;;8333552;28;19996;-64
2021/12/05 03:03:37;;;;;;;;;;;2.30;99.90;;;;;;8329153;28;19909;-65
2021/12/05 03:07:40;;;;;;;;;;;2.30;99.90;;;;;;8328435;28;20008;-64
2021/12/05 03:11:42;;;;;;;;;;;2.20;99.90;;;;;;8328293;28;19913;-65
2021/12/05 03:15:42;;;;;;;;;;;2.20;99.90;;;;;;8360378;28;19917;-64
2021/12/05 03:19:43;;;;;;;;;;;2.30;99.90;;;;;;8361725;28;19966;-65
2021/12/05 03:23:46;;;;;;;;;;;2.30;99.90;;;;;;8327080;28;19917;-65
2021/12/05 03:27:47;;;;;;;;;;;2.30;99.90;;;;;;8328053;28;19917;-64
2021/12/05 03:31:47;;;;;;;;;;;2.30;99.90;;;;;;8328321;28;19913;-64
2021/12/05 03:35:48;;;;;;;;;;;2.40;99.90;;;;;;8359183;28;19917;-65
2021/12/05 03:39:48;;;;;;;;;;;2.40;99.90;;;;;;8360675;28;19909;-64
2021/12/05 03:43:52;;;;;;;;;;;2.40;99.90;;;;;;8345696;28;20375;-64
2021/12/05 03:47:53;;;;;;;;;;;2.40;99.90;;;;;;8327780;28;20273;-64
2021/12/05 03:51:56;;;;;;;;;;;2.40;99.90;;;;;;8327629;28;19951;-64
2021/12/05 03:55:57;;;;;;;;;;;2.50;99.90;;;;;;8325865;28;19921;-64
2021/12/05 03:59:58;;;;;;;;;;;2.50;99.90;;;;;;8327444;28;20389;-64
2021/12/05 04:03:58;;;;;;;;;;;2.50;99.90;;;;;;8343453;28;19920;-64
2021/12/05 04:07:59;;;;;;;;;;;2.60;99.90;;;;;;8360364;28;20003;-64
2021/12/05 04:12:01;;;;;;;;;;;2.60;99.90;;;;;;8360191;28;20295;-64
2021/12/05 04:16:03;;;;;;;;;;;2.60;99.90;;;;;;8327649;28;19913;-64
2021/12/05 04:20:05;;;;;;;;;;;2.60;99.90;;;;;;8327273;28;20383;-64
2021/12/05 04:24:07;;;;;;;;;;;2.50;99.90;;;;;;8335857;28;19933;-64
2021/12/05 04:28:09;;;;;;;;;;;2.60;99.90;;;;;;8326403;28;19914;-64
2021/12/05 04:32:09;;;;;;;;;;;2.50;99.90;;;;;;8323052;28;19963;-65
2021/12/05 04:36:10;;;;;;;;;;;2.50;99.90;;;;;;8326450;28;19917;-64
2021/12/05 04:40:11;;;;;;;;;;;2.50;99.90;;;;;;8308858;28;19909;-64
2021/12/05 04:44:12;;;;;;;;;;;2.50;99.90;;;;;;8343359;28;19913;-64
2021/12/05 04:48:12;;;;;;;;;;;2.50;99.90;;;;;;8359766;28;19917;-64
2021/12/05 04:52:13;;;;;;;;;;;2.50;99.90;;;;;;8365799;28;19917;-64
2021/12/05 04:56:14;;;;;;;;;;;2.40;99.90;;;;;;8300482;28;19956;-64
2021/12/05 05:00:28;;;;;;;;;;;2.50;99.90;;;;;;8300345;28;19910;-64
2021/12/05 05:04:29;;;;;;;;;;;2.40;99.90;;;;;;8325998;28;19920;-64
2021/12/05 05:08:31;;;;;;;;;;;2.40;99.90;;;;;;8315177;28;20429;-64
2021/12/05 05:12:31;;;;;;;;;;;2.40;99.90;;;;;;8334329;28;20325;-64
2021/12/05 05:16:31;;;;;;;;;;;2.40;99.90;;;;;;8365557;28;19908;-64
2021/12/05 05:46:15;;;;;;;;;;;2.20;99.90;;;;;;8288660;28;19936;-64
2021/12/05 05:50:16;;;;;;;;;;;2.30;99.90;;;;;;8329910;28;19966;-64
2021/12/05 05:54:18;;;;;;;;;;;2.30;99.90;;;;;;8323356;28;20003;-64
2021/12/05 05:58:25;;;;;;;;;;;2.30;99.90;;;;;;8329639;28;19932;-64
2021/12/05 06:06:45;;;;;;;;;;;2.20;99.90;;;;;;8333857;28;19967;-64
2021/12/05 06:10:46;;;;;;;;;;;2.20;99.90;;;;;;8339330;28;21352;-64
2021/12/05 06:14:47;;;;;;;;;;;2.20;99.90;;;;;;8347817;28;19912;-64
2021/12/05 06:18:47;;;;;;;;;;;2.20;99.90;;;;;;8363783;28;19909;-64
2021/12/05 06:22:48;;;;;;;;;;;2.10;99.90;;;;;;8361417;28;19909;-64
2021/12/05 06:26:48;;;;;;;;;;;2.10;99.90;;;;;;8330675;28;19992;-64
2021/12/05 06:31:07;;;;;;;;;;;2.10;99.90;;;;;;8330322;28;19913;-64
2021/12/05 06:47:50;;;;;;;;;;;2.00;99.90;;;;;;8326904;28;19920;-64
2021/12/05 06:51:51;;;;;;;;;;;1.90;99.90;;;;;;8329642;28;20336;-64
2021/12/05 06:55:51;;;;;;;;;;;2.00;99.90;;;;;;8316583;28;20012;-64
2021/12/05 06:59:52;;;;;;;;;;;2.00;99.90;;;;;;8330214;28;20004;-64
2021/12/05 07:03:52;;;;;;;;;;;2.00;99.90;;;;;;8326509;28;20179;-64
2021/12/05 07:07:53;;;;;;;;;;;1.90;99.90;;;;;;8328576;28;19924;-64
2021/12/05 07:20:33;;;;;;;;;;;2.00;99.90;;;;;;8342431;28;19917;-64
2021/12/05 07:24:39;;;;;;;;;;;2.10;99.90;;;;;;8341857;28;19913;-64
2021/12/05 07:45:55;;;;;;;;;;;2.40;99.90;;;;;;8334792;28;19913;-64
2021/12/05 07:49:56;;;;;;;;;;;2.40;99.90;;;;;;8332606;28;19917;-64
2021/12/05 07:54:10;;;;;;;;;;;2.40;99.90;;;;;;8334973;28;20530;-65
2021/12/05 08:15:41;;;;;;;;;;;2.60;99.90;;;;;;8334480;28;20310;-64
2021/12/05 08:19:42;;;;;;;;;;;2.70;99.90;;;;;;8332110;28;20370;-64
2021/12/05 08:23:45;;;;;;;;;;;2.70;99.90;;;;;;8324367;28;19921;-64
2021/12/05 08:27:49;;;;;;;;;;;2.70;99.90;;;;;;8324646;28;19924;-64
2021/12/05 10:02:43;;;;;;;;;;;4.40;99.90;;;;;;8306762;28;19959;-62
2021/12/05 10:15:23;;;;;;;;;;;4.30;99.90;;;;;;8331266;28;20394;-63
2021/12/05 10:37:05;;;;;;;;;;;6.10;99.90;;;;;;8334339;28;19923;-62
2021/12/05 10:45:19;;;;;;;;;;;6.90;99.90;;;;;;8346740;28;19924;-62
2021/12/05 10:49:20;;;;;;;;;;;6.80;99.90;;;;;;8346660;28;20364;-63
2021/12/05 10:53:26;;;;;;;;;;;6.80;99.90;;;;;;8335254;28;19913;-62
2021/12/05 10:57:27;;;;;;;;;;;6.70;99.90;;;;;;8302878;28;20060;-63
2021/12/05 11:01:36;;;;;;;;;;;6.90;99.90;;;;;;8305518;28;20565;-63
2021/12/05 11:05:37;;;;;;;;;;;7.80;99.90;;;;;;8327981;28;19920;-63
2021/12/05 11:09:45;;;;;;;;;;;6.70;99.90;;;;;;8327204;28;20541;-62
2021/12/05 11:13:46;;;;;;;;;;;6.00;99.90;;;;;;8325999;28;20603;-62
2021/12/05 11:17:49;;;;;;;;;;;6.20;99.90;;;;;;8327110;28;19920;-63
2021/12/05 11:21:54;;;;;;;;;;;6.90;99.90;;;;;;8310105;28;19920;-62
2021/12/05 11:25:54;;;;;;;;;;;8.30;99.90;;;;;;8328962;28;19967;-63
2021/12/05 11:30:10;;;;;;;;;;;8.80;99.90;;;;;;8328414;28;20282;-63
2021/12/05 11:34:10;;;;;;;;;;;8.50;99.90;;;;;;8328160;28;20291;-63
2021/12/05 11:38:13;;;;;;;;;;;8.90;99.90;;;;;;8310249;28;19975;-63
2021/12/05 11:42:17;;;;;;;;;;;8.60;99.90;;;;;;8330194;28;19921;-63
2021/12/05 11:46:32;;;;;;;;;;;8.40;99.90;;;;;;8306560;28;19926;-63
2021/12/05 11:50:36;;;;;;;;;;;8.60;99.90;;;;;;8332462;28;20055;-63
2021/12/05 11:54:46;;;;;;;;;;;8.70;99.90;;;;;;8343718;28;19910;-63
2021/12/05 11:59:02;;;;;;;;;;;9.00;99.90;;;;;;8343320;28;19913;-63
2021/12/05 12:03:02;;;;;;;;;;;10.00;99.90;;;;;;8341409;28;20440;-63
2021/12/05 12:07:06;;;;;;;;;;;10.00;99.90;;;;;;8341394;28;19941;-63
2021/12/05 12:11:06;;;;;;;;;;;10.40;99.90;;;;;;8330021;28;19925;-63
2021/12/05 12:15:07;;;;;;;;;;;11.10;99.90;;;;;;8314306;28;19948;-63
2021/12/05 12:19:08;;;;;;;;;;;10.20;99.90;;;;;;8328791;28;20054;-63
2021/12/05 12:23:09;;;;;;;;;;;8.90;99.90;;;;;;8335893;28;19913;-62
2021/12/05 12:27:09;;;;;;;;;;;10.30;99.90;;;;;;8333158;28;19913;-63
2021/12/05 12:31:22;;;;;;;;;;;10.90;99.90;;;;;;8328433;28;19924;-63
2021/12/05 12:35:27;;;;;;;;;;;9.00;99.90;;;;;;8324255;28;20368;-63
2021/12/05 12:39:30;;;;;;;;;;;7.40;99.90;;;;;;8326823;28;19917;-63
2021/12/05 12:43:38;;;;;;;;;;;6.50;99.90;;;;;;8308598;28;19936;-63
2021/12/05 12:47:41;;;;;;;;;;;6.00;99.90;;;;;;8307999;28;19913;-62
2021/12/05 12:51:43;;;;;;;;;;;5.80;99.90;;;;;;8336576;28;19918;-63
2021/12/05 12:55:54;;;;;;;;;;;5.60;99.90;;;;;;8316640;28;20431;-61
2021/12/05 13:00:15;;;;;;;;;;;5.40;99.90;;;;;;8325220;28;19913;-62
2021/12/05 13:12:44;;;;;;;;;;;5.60;99.90;;;;;;8332303;28;19987;-61
2021/12/05 13:16:46;;;;;;;;;;;5.70;99.90;;;;;;8314907;28;20368;-62
2021/12/05 13:21:00;;;;;;;;;;;5.60;99.90;;;;;;8315136;28;20275;-62
2021/12/05 13:25:05;;;;;;;;;;;5.60;99.90;;;;;;8331087;28;19917;-62
2021/12/05 13:29:22;;;;;;;;;;;5.90;99.90;;;;;;8325067;28;19917;-62
2021/12/05 13:33:25;;;;;;;;;;;5.90;99.90;;;;;;8329304;28;19913;-62
2021/12/05 13:37:34;;;;;;;;;;;5.90;99.90;;;;;;8362031;28;19920;-62
2021/12/05 13:41:35;;;;;;;;;;;5.80;99.90;;;;;;8363871;28;20007;-62
2021/12/05 13:45:43;;;;;;;;;;;5.70;99.90;;;;;;8364612;28;19916;-61
2021/12/05 13:49:45;;;;;;;;;;;5.90;99.90;;;;;;8326799;28;19921;-62
2021/12/05 13:53:49;;;;;;;;;;;6.00;99.90;;;;;;8322335;28;19913;-63
2021/12/05 13:58:08;;;;;;;;;;;5.70;99.90;;;;;;8320196;28;19914;-63
2021/12/05 14:02:09;;;;;;;;;;;5.50;99.90;;;;;;8327997;28;19917;-62
2021/12/05 14:06:22;;;;;;;;;;;5.40;99.90;;;;;;8323926;28;19921;-62
2021/12/05 14:10:22;;;;;;;;;;;5.20;99.90;;;;;;8327234;28;19924;-62
2021/12/05 14:14:34;;;;;;;;;;;5.10;99.90;;;;;;8331928;28;20268;-63
2021/12/05 14:18:35;;;;;;;;;;;5.10;99.90;;;;;;8346038;28;19913;-61
2021/12/05 14:22:36;;;;;;;;;;;5.20;99.90;;;;;;8341667;28;19915;-61
2021/12/05 14:26:40;;;;;;;;;;;5.10;99.90;;;;;;8309611;28;19913;-61
2021/12/05 14:30:43;;;;;;;;;;;5.10;99.90;;;;;;8315724;28;20280;-61
2021/12/05 14:34:43;;;;;;;;;;;4.90;99.90;;;;;;8326949;28;19913;-61
2021/12/05 14:38:44;;;;;;;;;;;4.90;99.90;;;;;;8309648;28;19944;-61
2021/12/05 14:42:46;;;;;;;;;;;4.70;99.90;;;;;;8309839;28;20352;-61
2021/12/05 14:46:53;;;;;;;;;;;4.60;99.90;;;;;;8288701;28;19913;-61
2021/12/05 14:50:56;;;;;;;;;;;4.60;99.90;;;;;;8328563;28;19917;-61
2021/12/05 14:54:56;;;;;;;;;;;4.60;99.90;;;;;;8326884;28;19974;-61
2021/12/05 14:59:04;;;;;;;;;;;4.50;99.90;;;;;;8327365;28;19913;-61
2021/12/05 15:03:07;;;;;;;;;;;4.40;99.90;;;;;;8326716;28;19967;-61
2021/12/05 15:07:08;;;;;;;;;;;4.40;99.90;;;;;;8326320;28;19924;-61
2021/12/05 15:11:09;;;;;;;;;;;4.50;99.90;;;;;;8325524;28;20517;-61
2021/12/05 15:15:11;;;;;;;;;;;4.30;99.90;;;;;;8325771;28;19920;-61
2021/12/05 15:19:14;;;;;;;;;;;4.10;99.90;;;;;;8341500;28;19913;-61
2021/12/05 15:23:14;;;;;;;;;;;3.80;99.90;;;;;;8333870;28;20359;-61
2021/12/05 15:27:15;;;;;;;;;;;3.60;99.90;;;;;;8337447;28;19921;-62
2021/12/05 15:31:16;;;;;;;;;;;3.40;99.90;;;;;;8307010;28;19923;-61
2021/12/05 15:35:18;;;;;;;;;;;3.30;99.90;;;;;;8311142;28;19921;-62
2021/12/05 15:39:21;;;;;;;;;;;3.20;99.90;;;;;;8330780;28;19931;-61
2021/12/05 15:43:24;;;;;;;;;;;3.10;99.90;;;;;;8326836;28;19920;-59
2021/12/05 15:47:26;;;;;;;;;;;3.10;99.90;;;;;;8309617;28;19917;-61
2021/12/05 15:51:26;;;;;;;;;;;2.90;99.90;;;;;;8327170;28;19921;-61
2021/12/05 15:55:27;;;;;;;;;;;2.80;99.90;;;;;;8326440;28;19917;-61
2021/12/05 15:59:34;;;;;;;;;;;2.90;99.90;;;;;;8323887;28;20031;-62
2021/12/05 16:03:46;;;;;;;;;;;2.80;99.90;;;;;;8322482;28;19921;-63
2021/12/05 16:07:47;;;;;;;;;;;2.80;99.90;;;;;;8307363;28;19996;-61
2021/12/05 16:11:48;;;;;;;;;;;2.90;99.90;;;;;;8339994;28;19917;-62
2021/12/05 16:15:50;;;;;;;;;;;2.80;99.90;;;;;;8335963;28;20442;-63
2021/12/05 16:20:10;;;;;;;;;;;2.70;99.90;;;;;;8314811;28;19917;-62
2021/12/05 16:24:15;;;;;;;;;;;2.60;99.90;;;;;;8311963;28;19956;-62
2021/12/05 16:28:21;;;;;;;;;;;2.70;99.90;;;;;;8293141;28;20299;-63
2021/12/05 16:32:22;;;;;;;;;;;2.70;99.90;;;;;;8286584;28;19914;-63
2021/12/05 16:36:37;;;;;;;;;;;2.40;99.90;;;;;;8286328;28;20598;-63
2021/12/05 16:40:50;;;;;;;;;;;2.40;99.90;;;;;;8304142;28;19917;-63
2021/12/05 16:44:52;;;;;;;;;;;2.40;99.90;;;;;;8294967;28;19917;-63
2021/12/05 16:48:53;;;;;;;;;;;2.20;99.90;;;;;;8286590;28;19932;-62
2021/12/05 16:52:54;;;;;;;;;;;2.00;99.90;;;;;;8298528;28;20004;-62
2021/12/05 16:57:16;;;;;;;;;;;2.00;99.90;;;;;;8296609;28;19920;-63
2021/12/05 17:01:19;;;;;;;;;;;2.00;99.90;;;;;;8291876;28;19917;-63
2021/12/05 17:05:22;;;;;;;;;;;1.90;99.90;;;;;;8299033;28;19925;-63
2021/12/05 17:09:22;;;;;;;;;;;1.90;99.90;;;;;;8327038;28;20417;-65
2021/12/05 17:13:23;;;;;;;;;;;1.90;99.90;;;;;;8307754;28;19921;-62
2021/12/05 17:17:30;;;;;;;;;;;1.90;99.90;;;;;;8327307;28;19967;-63
2021/12/05 17:21:35;;;;;;;;;;;2.10;99.90;;;;;;8328619;28;19909;-62
2021/12/05 17:25:40;;;;;;;;;;;2.20;99.90;;;;;;8343107;28;20384;-63
2021/12/05 17:29:43;;;;;;;;;;;2.50;99.90;;;;;;8312102;28;19921;-62
2021/12/05 17:33:48;;;;;;;;;;;2.50;99.90;;;;;;8327965;28;20367;-62
2021/12/05 17:37:50;;;;;;;;;;;2.40;99.90;;;;;;8329962;28;19917;-63
2021/12/05 17:41:59;;;;;;;;;;;2.20;99.90;;;;;;8331547;28;19979;-63
2021/12/05 17:46:00;;;;;;;;;;;2.40;99.90;;;;;;8306529;28;20012;-63
2021/12/05 17:50:03;;;;;;;;;;;2.40;99.90;;;;;;8326096;28;20382;-63
2021/12/05 17:54:05;;;;;;;;;;;2.50;99.90;;;;;;8309973;28;19921;-62
2021/12/05 17:58:20;;;;;;;;;;;2.40;99.90;;;;;;8325762;28;20004;-62
2021/12/05 18:02:42;;;;;;;;;;;2.30;99.90;;;;;;8304914;28;19921;-63
2021/12/05 18:06:43;;;;;;;;;;;2.10;99.90;;;;;;8325685;28;19921;-63
2021/12/05 18:10:48;;;;;;;;;;;2.10;99.90;;;;;;8333173;28;19928;-63
2021/12/05 18:14:50;;;;;;;;;;;2.00;99.90;;;;;;8322812;28;19917;-63
2021/12/05 18:18:52;;;;;;;;;;;2.20;99.90;;;;;;8321080;28;20007;-66
2021/12/05 18:22:54;;;;;;;;;;;2.20;99.90;;;;;;8331451;28;19923;-63
2021/12/05 18:26:54;;;;;;;;;;;2.10;99.90;;;;;;8324785;28;19931;-64
2021/12/05 18:30:55;;;;;;;;;;;2.10;99.90;;;;;;8329696;28;19927;-64
2021/12/05 18:34:56;;;;;;;;;;;2.40;99.90;;;;;;8314631;28;19929;-64
2021/12/05 18:38:57;;;;;;;;;;;2.30;99.90;;;;;;8336541;28;19929;-63
2021/12/05 18:42:58;;;;;;;;;;;2.40;99.90;;;;;;8313316;28;20311;-63
2021/12/05 18:46:59;;;;;;;;;;;2.30;99.90;;;;;;8305804;28;19920;-64
2021/12/05 18:51:01;;;;;;;;;;;2.20;99.90;;;;;;8328242;28;19936;-64
2021/12/05 18:55:05;;;;;;;;;;;2.10;99.90;;;;;;8323090;28;20434;-63
2021/12/05 18:59:07;;;;;;;;;;;2.10;99.90;;;;;;8323793;28;20358;-63
2021/12/05 19:07:39;;;;;;;;;;;2.10;99.90;;;;;;8318604;28;19992;-63
2021/12/05 19:11:43;;;;;;;;;;;2.00;99.90;;;;;;8294116;28;19921;-63
2021/12/05 19:15:44;;;;;;;;;;;2.30;99.90;;;;;;8280858;28;19924;-63
2021/12/05 19:19:46;;;;;;;;;;;2.30;99.90;;;;;;8307813;28;20287;-62
2021/12/05 19:23:46;;;;;;;;;;;2.30;99.90;;;;;;8311753;28;19940;-62
2021/12/05 19:27:48;;;;;;;;;;;2.30;99.90;;;;;;8312435;28;19909;-62
2021/12/05 19:31:49;;;;;;;;;;;2.30;99.90;;;;;;8317351;28;19917;-63
2021/12/05 19:35:50;;;;;;;;;;;1.90;99.90;;;;;;8311894;28;19917;-63
2021/12/05 19:39:51;;;;;;;;;;;2.20;99.90;;;;;;8307751;28;19940;-63
2021/12/05 19:43:52;;;;;;;;;;;2.20;99.90;;;;;;8289822;28;19917;-63
2021/12/05 19:47:53;;;;;;;;;;;2.10;99.90;;;;;;8297963;28;19928;-63
2021/12/05 19:51:54;;;;;;;;;;;1.70;99.90;;;;;;8291254;28;19925;-64
2021/12/05 19:55:54;;;;;;;;;;;1.80;99.90;;;;;;8283439;28;19988;-64
2021/12/05 19:59:55;;;;;;;;;;;1.80;99.90;;;;;;8284612;28;20003;-65
2021/12/05 20:03:55;;;;;;;;;;;1.70;99.90;;;;;;8290910;28;19917;-64
2021/12/05 20:07:57;;;;;;;;;;;1.70;99.90;;;;;;8289972;28;19917;-64
2021/12/05 20:11:58;;;;;;;;;;;1.90;99.90;;;;;;8291400;28;19944;-64
2021/12/05 20:15:59;;;;;;;;;;;1.80;99.90;;;;;;8305489;28;19917;-64
2021/12/05 20:20:03;;;;;;;;;;;1.70;99.90;;;;;;8303138;28;20975;-65
2021/12/05 20:24:04;;;;;;;;;;;1.60;99.90;;;;;;8314734;28;19997;-62
2021/12/05 20:28:05;;;;;;;;;;;1.40;99.90;;;;;;8311376;28;19921;-63
2021/12/05 20:32:05;;;;;;;;;;;1.50;99.90;;;;;;8320144;28;19913;-63
2021/12/05 20:36:07;;;;;;;;;;;1.40;99.90;;;;;;8321438;28;19921;-62
2021/12/05 20:40:11;;;;;;;;;;;1.40;99.90;;;;;;8312232;28;19921;-63
2021/12/05 20:44:12;;;;;;;;;;;1.40;99.90;;;;;;8295891;28;20000;-63
2021/12/05 20:48:13;;;;;;;;;;;1.60;99.90;;;;;;8298459;28;19917;-63
2021/12/05 20:52:14;;;;;;;;;;;1.60;99.90;;;;;;8300820;28;19920;-63
2021/12/05 20:56:14;;;;;;;;;;;1.60;99.90;;;;;;8321680;28;19921;-63
2021/12/05 21:00:17;;;;;;;;;;;1.60;99.90;;;;;;8324728;28;19917;-63
2021/12/05 21:04:18;;;;;;;;;;;1.60;99.90;;;;;;8326484;28;19948;-63
2021/12/05 21:08:19;;;;;;;;;;;1.70;99.90;;;;;;8317730;28;19929;-63
2021/12/05 21:12:19;;;;;;;;;;;1.80;99.90;;;;;;8321774;28;20008;-63
2021/12/05 21:16:21;;;;;;;;;;;1.90;99.90;;;;;;8304290;28;19909;-63
2021/12/05 21:20:23;;;;;;;;;;;1.90;99.90;;;;;;8321367;28;19924;-63
2021/12/05 21:24:24;;;;;;;;;;;1.90;99.90;;;;;;8321522;28;19909;-63
2021/12/05 21:28:24;;;;;;;;;;;1.80;99.90;;;;;;8320925;28;19928;-63
2021/12/05 21:32:26;;;;;;;;;;;1.70;99.90;;;;;;8325065;28;19960;-63
2021/12/05 21:36:26;;;;;;;;;;;1.60;99.90;;;;;;8325060;28;19920;-64
2021/12/05 21:40:29;;;;;;;;;;;1.50;99.90;;;;;;8332708;28;19948;-64
2021/12/05 21:44:30;;;;;;;;;;;1.50;99.90;;;;;;8341847;28;19928;-62
2021/12/05 21:48:30;;;;;;;;;;;1.40;99.90;;;;;;8297034;28;19912;-64
2021/12/05 21:52:31;;;;;;;;;;;1.40;99.90;;;;;;8322391;28;19920;-64
2021/12/05 21:56:32;;;;;;;;;;;1.30;99.90;;;;;;8354793;28;20509;-63
2021/12/05 22:00:33;;;;;;;;;;;1.30;99.90;;;;;;8361136;28;19920;-63
2021/12/05 22:04:34;;;;;;;;;;;1.50;99.90;;;;;;8334083;28;20619;-63
2021/12/05 22:08:35;;;;;;;;;;;1.60;99.90;;;;;;8326152;28;19917;-63
2021/12/05 22:12:36;;;;;;;;;;;1.30;99.90;;;;;;8327551;28;19955;-63
2021/12/05 22:16:36;;;;;;;;;;;1.10;99.90;;;;;;8327542;28;20287;-62
2021/12/05 22:20:41;;;;;;;;;;;1.00;99.90;;;;;;8327167;28;19913;-62
2021/12/05 22:24:42;;;;;;;;;;;1.40;99.90;;;;;;8323823;28;19917;-63
2021/12/05 22:28:42;;;;;;;;;;;1.60;99.90;;;;;;8327355;28;19960;-64
2021/12/05 22:32:43;;;;;;;;;;;1.60;99.90;;;;;;8325943;28;20386;-63
2021/12/05 22:36:43;;;;;;;;;;;1.50;99.90;;;;;;8326389;28;20643;-63
2021/12/05 22:40:44;;;;;;;;;;;1.30;99.90;;;;;;8325691;28;19940;-63
2021/12/05 22:44:45;;;;;;;;;;;1.00;99.90;;;;;;8345183;28;19917;-63
2021/12/05 22:48:45;;;;;;;;;;;1.00;99.90;;;;;;8327365;28;19918;-66
2021/12/05 22:52:47;;;;;;;;;;;0.80;99.90;;;;;;8327939;28;20433;-65
2021/12/05 22:56:47;;;;;;;;;;;1.00;99.90;;;;;;8311870;28;19909;-65
2021/12/05 23:01:06;;;;;;;;;;;0.70;99.90;;;;;;8352379;28;19919;-65
2021/12/05 23:05:07;;;;;;;;;;;0.60;99.90;;;;;;8331081;28;20082;-64
2021/12/05 23:09:09;;;;;;;;;;;0.40;99.90;;;;;;8312042;28;19939;-63
2021/12/05 23:13:10;;;;;;;;;;;0.70;99.90;;;;;;8310332;28;19917;-65
2021/12/05 23:17:10;;;;;;;;;;;0.70;99.90;;;;;;8356762;28;19919;-64
2021/12/05 23:21:15;;;;;;;;;;;0.80;99.90;;;;;;8361875;28;19916;-63
2021/12/05 23:25:16;;;;;;;;;;;0.70;99.90;;;;;;8344350;28;20282;-63
2021/12/05 23:29:19;;;;;;;;;;;0.80;99.90;;;;;;8344343;28;20015;-64
2021/12/05 23:33:21;;;;;;;;;;;0.80;99.90;;;;;;8343363;28;19913;-63
2021/12/05 23:37:22;;;;;;;;;;;0.90;99.90;;;;;;8310933;28;19917;-63
2021/12/05 23:41:23;;;;;;;;;;;0.90;99.90;;;;;;8338185;28;19939;-64
2021/12/05 23:45:24;;;;;;;;;;;1.00;99.90;;;;;;8327074;28;19916;-64
2021/12/05 23:49:25;;;;;;;;;;;0.70;99.90;;;;;;8338780;28;19962;-65
2021/12/05 23:53:26;;;;;;;;;;;0.70;99.90;;;;;;8360764;28;20395;-64
2021/12/05 23:57:27;;;;;;;;;;;0.90;99.90;;;;;;8343526;28;19917;-64
